sensor_id;sensor_type;location;lat;lon;timestamp;pressure;altitude;pressure_sealevel;temperature
51693;BMP280;37777;53.066;21.638;2024-03-23T00:57:53;99601.84;;;8.48
51693;BMP280;37777;53.066;21.638;2024-03-23T01:04:53;99588.03;;;8.50
51693;BMP280;37777;53.066;21.638;2024-03-23T01:11:54;99591.06;;;8.48
51693;BMP280;37777;53.066;21.638;2024-03-23T01:18:54;99585.69;;;8.48
51693;BMP280;37777;53.066;21.638;2024-03-23T01:25:55;99581.06;;;8.49
51693;BMP280;37777;53.066;21.638;2024-03-23T01:32:56;99589.59;;;8.51
51693;BMP280;37777;53.066;21.638;2024-03-23T01:39:56;99579.16;;;8.49
51693;BMP280;37777;53.066;21.638;2024-03-23T01:46:57;99573.31;;;8.47
51693;BMP280;37777;53.066;21.638;2024-03-23T01:53:58;99572.31;;;8.52
51693;BMP280;37777;53.066;21.638;2024-03-23T02:01:01;99564.56;;;8.50
51693;BMP280;37777;53.066;21.638;2024-03-23T02:08:01;99557.59;;;8.49
51693;BMP280;37777;53.066;21.638;2024-03-23T02:15:02;99553.44;;;8.52
51693;BMP280;37777;53.066;21.638;2024-03-23T02:22:03;99559.25;;;8.54
51693;BMP280;37777;53.066;21.638;2024-03-23T02:37:43;99535.00;;;8.54
51693;BMP280;37777;53.066;21.638;2024-03-23T02:44:44;99523.44;;;8.53
51693;BMP280;37777;53.066;21.638;2024-03-23T02:51:45;99519.50;;;8.51
51693;BMP280;37777;53.066;21.638;2024-03-23T02:58:48;99515.34;;;8.53
51693;BMP280;37777;53.066;21.638;2024-03-23T03:05:55;99510.28;;;8.52
51693;BMP280;37777;53.066;21.638;2024-03-23T03:12:55;99511.88;;;8.53
51693;BMP280;37777;53.066;21.638;2024-03-23T03:19:56;99503.34;;;8.51
51693;BMP280;37777;53.066;21.638;2024-03-23T03:26:56;99500.63;;;8.51
51693;BMP280;37777;53.066;21.638;2024-03-23T03:33:58;99509.50;;;8.51
51693;BMP280;37777;53.066;21.638;2024-03-23T03:40:59;99500.63;;;8.51
51693;BMP280;37777;53.066;21.638;2024-03-23T03:47:59;99502.63;;;8.54
51693;BMP280;37777;53.066;21.638;2024-03-23T03:55:03;99511.91;;;8.56
51693;BMP280;37777;53.066;21.638;2024-03-23T04:02:04;99521.94;;;8.56
51693;BMP280;37777;53.066;21.638;2024-03-23T04:09:04;99528.53;;;8.58
51693;BMP280;37777;53.066;21.638;2024-03-23T04:16:05;99515.50;;;8.60
51693;BMP280;37777;53.066;21.638;2024-03-23T04:23:05;99501.22;;;8.60
51693;BMP280;37777;53.066;21.638;2024-03-23T04:30:06;99502.09;;;8.64
51693;BMP280;37777;53.066;21.638;2024-03-23T04:37:11;99502.09;;;8.64
51693;BMP280;37777;53.066;21.638;2024-03-23T04:44:12;99481.59;;;8.59
51693;BMP280;37777;53.066;21.638;2024-03-23T05:07:56;99482.81;;;8.62
51693;BMP280;37777;53.066;21.638;2024-03-23T05:14:57;99478.97;;;8.63
51693;BMP280;37777;53.066;21.638;2024-03-23T05:21:58;99473.66;;;8.67
51693;BMP280;37777;53.066;21.638;2024-03-23T05:28:59;99472.88;;;8.66
51693;BMP280;37777;53.066;21.638;2024-03-23T05:36:01;99464.50;;;8.71
51693;BMP280;37777;53.066;21.638;2024-03-23T05:43:01;99453.44;;;8.76
51693;BMP280;37777;53.066;21.638;2024-03-23T05:50:02;99463.44;;;8.76
51693;BMP280;37777;53.066;21.638;2024-03-23T05:57:03;99454.75;;;8.82
51693;BMP280;37777;53.066;21.638;2024-03-23T06:04:04;99447.94;;;8.89
51693;BMP280;37777;53.066;21.638;2024-03-23T06:11:04;99451.94;;;8.95
51693;BMP280;37777;53.066;21.638;2024-03-23T06:18:07;99444.97;;;8.94
51693;BMP280;37777;53.066;21.638;2024-03-23T06:25:08;99433.56;;;9.01
51693;BMP280;37777;53.066;21.638;2024-03-23T06:40:31;99445.94;;;9.05
51693;BMP280;37777;53.066;21.638;2024-03-23T06:47:32;99435.16;;;9.05
51693;BMP280;37777;53.066;21.638;2024-03-23T06:54:32;99418.56;;;9.23
51693;BMP280;37777;53.066;21.638;2024-03-23T07:01:33;99438.00;;;9.32
51693;BMP280;37777;53.066;21.638;2024-03-23T07:08:34;99429.63;;;9.37
51693;BMP280;37777;53.066;21.638;2024-03-23T07:15:35;99442.28;;;9.33
51693;BMP280;37777;53.066;21.638;2024-03-23T07:22:35;99432.88;;;9.27
51693;BMP280;37777;53.066;21.638;2024-03-23T07:29:36;99437.16;;;9.28
51693;BMP280;37777;53.066;21.638;2024-03-23T07:36:36;99420.13;;;9.24
51693;BMP280;37777;53.066;21.638;2024-03-23T07:43:38;99415.44;;;9.21
51693;BMP280;37777;53.066;21.638;2024-03-23T07:50:39;99398.81;;;9.18
51693;BMP280;37777;53.066;21.638;2024-03-23T07:57:39;99378.50;;;9.25
51693;BMP280;37777;53.066;21.638;2024-03-23T08:04:40;99363.13;;;9.48
51693;BMP280;37777;53.066;21.638;2024-03-23T08:11:40;99376.06;;;9.62
51693;BMP280;37777;53.066;21.638;2024-03-23T08:18:41;99368.28;;;9.57
51693;BMP280;37777;53.066;21.638;2024-03-23T08:25:42;99362.81;;;9.53
51693;BMP280;37777;53.066;21.638;2024-03-23T08:32:42;99356.50;;;9.46
51693;BMP280;37777;53.066;21.638;2024-03-23T08:39:43;99348.78;;;9.44
51693;BMP280;37777;53.066;21.638;2024-03-23T08:46:44;99326.31;;;9.40
51693;BMP280;37777;53.066;21.638;2024-03-23T08:53:45;99324.06;;;9.42
51693;BMP280;37777;53.066;21.638;2024-03-23T09:09:19;99305.25;;;9.49
51693;BMP280;37777;53.066;21.638;2024-03-23T09:16:20;99288.22;;;9.68
51693;BMP280;37777;53.066;21.638;2024-03-23T09:23:21;99280.50;;;9.67
51693;BMP280;37777;53.066;21.638;2024-03-23T09:30:21;99268.72;;;9.56
51693;BMP280;37777;53.066;21.638;2024-03-23T09:37:22;99270.22;;;9.53
51693;BMP280;37777;53.066;21.638;2024-03-23T09:44:23;99257.88;;;9.52
51693;BMP280;37777;53.066;21.638;2024-03-23T09:51:26;99238.56;;;9.50
51693;BMP280;37777;53.066;21.638;2024-03-23T09:58:26;99216.38;;;9.64
51693;BMP280;37777;53.066;21.638;2024-03-23T10:05:30;99207.72;;;9.81
51693;BMP280;37777;53.066;21.638;2024-03-23T10:12:44;99201.66;;;9.88
51693;BMP280;37777;53.066;21.638;2024-03-23T10:19:47;99204.22;;;9.77
51693;BMP280;37777;53.066;21.638;2024-03-23T10:26:56;99187.94;;;9.70
51693;BMP280;37777;53.066;21.638;2024-03-23T10:33:57;99167.84;;;9.67
51693;BMP280;37777;53.066;21.638;2024-03-23T10:49:39;99126.19;;;9.68
51693;BMP280;37777;53.066;21.638;2024-03-23T10:56:40;99121.66;;;9.76
51693;BMP280;37777;53.066;21.638;2024-03-23T11:03:45;99120.16;;;9.82
51693;BMP280;37777;53.066;21.638;2024-03-23T11:19:34;99097.69;;;9.75
51693;BMP280;37777;53.066;21.638;2024-03-23T11:26:38;99086.13;;;9.74
51693;BMP280;37777;53.066;21.638;2024-03-23T11:33:39;99066.78;;;9.72
51693;BMP280;37777;53.066;21.638;2024-03-23T11:40:44;99061.44;;;9.76
51693;BMP280;37777;53.066;21.638;2024-03-23T11:47:45;99056.59;;;9.88
51693;BMP280;37777;53.066;21.638;2024-03-23T11:54:46;99047.00;;;9.95
51693;BMP280;37777;53.066;21.638;2024-03-23T12:01:46;99053.22;;;9.99
51693;BMP280;37777;53.066;21.638;2024-03-23T12:08:53;99039.84;;;10.13
51693;BMP280;37777;53.066;21.638;2024-03-23T12:15:54;99025.09;;;10.07
51693;BMP280;37777;53.066;21.638;2024-03-23T12:31:16;99025.16;;;10.11
51693;BMP280;37777;53.066;21.638;2024-03-23T12:38:17;99006.25;;;10.63
51693;BMP280;37777;53.066;21.638;2024-03-23T12:45:17;99003.28;;;10.82
51693;BMP280;37777;53.066;21.638;2024-03-23T12:52:21;98991.63;;;10.71
51693;BMP280;37777;53.066;21.638;2024-03-23T12:59:25;98971.19;;;10.77
51693;BMP280;37777;53.066;21.638;2024-03-23T13:06:25;98958.84;;;10.83
51693;BMP280;37777;53.066;21.638;2024-03-23T13:13:27;98943.41;;;10.87
51693;BMP280;37777;53.066;21.638;2024-03-23T13:28:50;98926.41;;;10.94
51693;BMP280;37777;53.066;21.638;2024-03-23T13:35:54;98903.19;;;10.86
51693;BMP280;37777;53.066;21.638;2024-03-23T13:42:59;98897.81;;;10.93
51693;BMP280;37777;53.066;21.638;2024-03-23T13:58:34;98882.00;;;11.06
51693;BMP280;37777;53.066;21.638;2024-03-23T14:05:35;98878.53;;;11.05
51693;BMP280;37777;53.066;21.638;2024-03-23T14:12:36;98863.88;;;11.06
51693;BMP280;37777;53.066;21.638;2024-03-23T14:19:38;98853.00;;;11.03
51693;BMP280;37777;53.066;21.638;2024-03-23T14:26:38;98853.78;;;11.03
51693;BMP280;37777;53.066;21.638;2024-03-23T14:33:39;98842.19;;;10.95
51693;BMP280;37777;53.066;21.638;2024-03-23T14:40:46;98822.03;;;10.86
51693;BMP280;37777;53.066;21.638;2024-03-23T14:47:47;98821.25;;;10.78
51693;BMP280;37777;53.066;21.638;2024-03-23T14:54:48;98822.00;;;10.71
51693;BMP280;37777;53.066;21.638;2024-03-23T15:01:48;98793.34;;;10.59
51693;BMP280;37777;53.066;21.638;2024-03-23T15:08:49;98787.16;;;10.55
51693;BMP280;37777;53.066;21.638;2024-03-23T15:15:49;98777.06;;;10.38
51693;BMP280;37777;53.066;21.638;2024-03-23T15:22:51;98773.13;;;10.21
51693;BMP280;37777;53.066;21.638;2024-03-23T15:29:52;98775.81;;;10.14
51693;BMP280;37777;53.066;21.638;2024-03-23T15:36:52;98780.00;;;10.04
51693;BMP280;37777;53.066;21.638;2024-03-23T15:43:53;98779.19;;;10.00
51693;BMP280;37777;53.066;21.638;2024-03-23T15:50:55;98773.78;;;10.00
51693;BMP280;37777;53.066;21.638;2024-03-23T15:57:55;98727.06;;;9.96
51693;BMP280;37777;53.066;21.638;2024-03-23T16:04:56;98712.75;;;9.92
51693;BMP280;37777;53.066;21.638;2024-03-23T16:11:58;98748.25;;;9.86
51693;BMP280;37777;53.066;21.638;2024-03-23T16:18:59;98754.81;;;9.85
51693;BMP280;37777;53.066;21.638;2024-03-23T16:25:59;98690.34;;;9.84
51693;BMP280;37777;53.066;21.638;2024-03-23T16:41:23;98645.56;;;9.76
51693;BMP280;37777;53.066;21.638;2024-03-23T16:48:24;98633.22;;;9.71
51693;BMP280;37777;53.066;21.638;2024-03-23T16:55:25;98621.63;;;9.67
51693;BMP280;37777;53.066;21.638;2024-03-23T17:02:25;98608.47;;;9.65
51693;BMP280;37777;53.066;21.638;2024-03-23T17:17:54;98624.69;;;9.62
51693;BMP280;37777;53.066;21.638;2024-03-23T17:24:55;98619.22;;;9.54
51693;BMP280;37777;53.066;21.638;2024-03-23T17:31:55;98636.84;;;9.34
51693;BMP280;37777;53.066;21.638;2024-03-23T17:38:56;98651.38;;;9.15
51693;BMP280;37777;53.066;21.638;2024-03-23T17:45:57;98633.19;;;9.05
51693;BMP280;37777;53.066;21.638;2024-03-23T17:53:01;98644.41;;;9.10
51693;BMP280;37777;53.066;21.638;2024-03-23T18:00:01;98628.97;;;9.07
51693;BMP280;37777;53.066;21.638;2024-03-23T18:07:07;98599.44;;;9.29
51693;BMP280;37777;53.066;21.638;2024-03-23T18:14:08;98596.78;;;9.32
51693;BMP280;37777;53.066;21.638;2024-03-23T18:29:31;98625.34;;;9.44
51693;BMP280;37777;53.066;21.638;2024-03-23T18:36:32;98665.78;;;8.48
51693;BMP280;37777;53.066;21.638;2024-03-23T18:43:33;98690.00;;;8.14
51693;BMP280;37777;53.066;21.638;2024-03-23T18:50:34;98743.06;;;7.10
51693;BMP280;37777;53.066;21.638;2024-03-23T18:57:35;98771.38;;;6.45
51693;BMP280;37777;53.066;21.638;2024-03-23T19:04:35;98793.09;;;6.20
51693;BMP280;37777;53.066;21.638;2024-03-23T19:11:36;98807.34;;;5.73
51693;BMP280;37777;53.066;21.638;2024-03-23T19:18:37;98818.13;;;5.60
51693;BMP280;37777;53.066;21.638;2024-03-23T19:25:37;98847.47;;;5.25
51693;BMP280;37777;53.066;21.638;2024-03-23T19:32:39;98857.28;;;4.92
51693;BMP280;37777;53.066;21.638;2024-03-23T19:39:39;98871.03;;;4.66
51693;BMP280;37777;53.066;21.638;2024-03-23T19:46:43;98869.59;;;4.69
51693;BMP280;37777;53.066;21.638;2024-03-23T19:53:44;98895.09;;;4.63
51693;BMP280;37777;53.066;21.638;2024-03-23T20:00:44;98916.72;;;4.57
51693;BMP280;37777;53.066;21.638;2024-03-23T20:07:45;98953.97;;;4.50
51693;BMP280;37777;53.066;21.638;2024-03-23T20:14:45;98978.53;;;4.40
51693;BMP280;37777;53.066;21.638;2024-03-23T20:21:46;99003.28;;;4.37
51693;BMP280;37777;53.066;21.638;2024-03-23T20:28:46;99023.78;;;4.33
51693;BMP280;37777;53.066;21.638;2024-03-23T20:35:47;99028.81;;;4.34
51693;BMP280;37777;53.066;21.638;2024-03-23T20:42:51;99017.53;;;4.29
51693;BMP280;37777;53.066;21.638;2024-03-23T20:49:51;99048.22;;;4.31
51693;BMP280;37777;53.066;21.638;2024-03-23T20:56:52;99068.44;;;4.41
51693;BMP280;37777;53.066;21.638;2024-03-23T21:03:57;99077.47;;;4.36
51693;BMP280;37777;53.066;21.638;2024-03-23T21:19:20;99094.84;;;4.30
51693;BMP280;37777;53.066;21.638;2024-03-23T21:26:20;99100.84;;;4.27
51693;BMP280;37777;53.066;21.638;2024-03-23T21:33:27;99118.03;;;4.26
51693;BMP280;37777;53.066;21.638;2024-03-23T21:40:28;99116.41;;;4.34
51693;BMP280;37777;53.066;21.638;2024-03-23T21:47:28;99145.38;;;4.32
51693;BMP280;37777;53.066;21.638;2024-03-23T21:54:29;99149.69;;;4.45
51693;BMP280;37777;53.066;21.638;2024-03-23T22:01:29;99148.06;;;4.53
51693;BMP280;37777;53.066;21.638;2024-03-23T22:08:30;99147.09;;;4.57
51693;BMP280;37777;53.066;21.638;2024-03-23T22:15:30;99168.53;;;4.57
51693;BMP280;37777;53.066;21.638;2024-03-23T22:22:31;99175.31;;;4.55
51693;BMP280;37777;53.066;21.638;2024-03-23T22:37:54;99159.69;;;4.57
51693;BMP280;37777;53.066;21.638;2024-03-23T22:44:54;99157.72;;;4.45
51693;BMP280;37777;53.066;21.638;2024-03-23T22:51:55;99171.09;;;4.45
51693;BMP280;37777;53.066;21.638;2024-03-23T22:58:55;99173.38;;;4.43
51693;BMP280;37777;53.066;21.638;2024-03-23T23:06:03;99182.44;;;4.51
51693;BMP280;37777;53.066;21.638;2024-03-23T23:13:08;99190.22;;;4.44
51693;BMP280;37777;53.066;21.638;2024-03-23T23:20:10;99189.84;;;4.45
51693;BMP280;37777;53.066;21.638;2024-03-23T23:27:10;99189.78;;;4.41
51693;BMP280;37777;53.066;21.638;2024-03-23T23:34:11;99182.38;;;4.38
51693;BMP280;37777;53.066;21.638;2024-03-23T23:49:34;99192.63;;;4.36
51693;BMP280;37777;53.066;21.638;2024-03-23T23:56:34;99214.56;;;4.30
